createdAt,value
2022-08-22T00:01:44.572Z,17.78
2022-08-22T00:02:53.247Z,20.52
2022-08-22T00:07:19.069Z,17.79
2022-08-22T00:12:30.310Z,17.75
2022-08-22T00:17:44.683Z,17.69
2022-08-22T00:22:58.950Z,17.61
2022-08-22T00:28:24.283Z,17.58
2022-08-22T00:33:47.691Z,17.57
2022-08-22T00:38:59.270Z,17.57
2022-08-22T00:44:26.028Z,17.59
2022-08-22T00:49:43.778Z,17.55
2022-08-22T00:55:10.239Z,17.50
2022-08-22T01:00:21.248Z,17.49
2022-08-22T01:05:44.840Z,17.48
2022-08-22T01:11:13.254Z,17.49
2022-08-22T01:16:34.545Z,17.48
2022-08-22T01:21:54.874Z,17.35
2022-08-22T01:27:06.466Z,17.36
2022-08-22T01:32:29.436Z,17.36
2022-08-22T01:37:43.478Z,17.36
2022-08-22T01:43:05.958Z,17.33
2022-08-22T01:48:23.122Z,17.33
2022-08-22T01:54:02.155Z,17.29
2022-08-22T01:59:11.270Z,17.28
2022-08-22T02:04:53.316Z,17.26
2022-08-22T02:10:26.014Z,17.22
2022-08-22T02:15:43.901Z,17.16
2022-08-22T02:20:58.591Z,17.13
2022-08-22T02:26:07.617Z,17.12
2022-08-22T02:31:18.899Z,17.12
2022-08-22T02:36:43.500Z,17.10
2022-08-22T02:42:07.201Z,17.10
2022-08-22T02:47:38.362Z,17.09
2022-08-22T02:53:02.668Z,17.07
2022-08-22T02:58:14.168Z,17.07
2022-08-22T03:03:29.057Z,17.05
2022-08-22T03:08:38.010Z,17.08
2022-08-22T03:14:10.903Z,17.07
2022-08-22T03:19:22.321Z,17.08
2022-08-22T03:24:48.658Z,17.04
2022-08-22T03:29:57.301Z,17.07
2022-08-22T03:35:11.696Z,17.08
2022-08-22T03:40:32.279Z,17.07
2022-08-22T03:45:49.926Z,17.08
2022-08-22T03:51:17.842Z,17.08
2022-08-22T03:56:57.445Z,17.11
2022-08-22T04:02:41.970Z,17.12
2022-08-22T04:07:50.696Z,17.11
2022-08-22T04:13:11.414Z,17.07
2022-08-22T04:18:36.657Z,17.11
2022-08-22T04:23:54.083Z,17.14
2022-08-22T04:29:02.641Z,17.14
2022-08-22T04:34:14.137Z,17.20
2022-08-22T04:39:41.027Z,17.32
2022-08-22T04:44:56.216Z,17.43
2022-08-22T04:50:16.897Z,17.53
2022-08-22T04:55:38.026Z,17.60
2022-08-22T05:00:52.394Z,17.70
2022-08-22T05:06:00.272Z,17.81
2022-08-22T05:11:08.997Z,17.94
2022-08-22T05:16:23.631Z,18.09
2022-08-22T05:21:32.107Z,18.26
2022-08-22T05:26:40.900Z,18.37
2022-08-22T05:31:49.649Z,18.52
2022-08-22T05:37:16.302Z,18.68
2022-08-22T05:42:30.693Z,18.90
2022-08-22T05:47:48.428Z,19.09
2022-08-22T05:53:00.028Z,19.30
2022-08-22T05:58:20.339Z,19.49
2022-08-22T06:03:35.080Z,19.67
2022-08-22T06:08:49.596Z,19.84
2022-08-22T06:14:00.997Z,20.00
2022-08-22T06:19:19.119Z,20.22
2022-08-22T06:24:23.592Z,20.41
2022-08-22T06:29:37.966Z,20.57
2022-08-22T06:34:46.816Z,20.72
2022-08-22T06:39:55.108Z,20.88
2022-08-22T06:45:10.335Z,20.93
2022-08-22T06:50:28.289Z,21.19
2022-08-22T06:55:35.064Z,21.32
2022-08-22T07:00:43.627Z,21.41
2022-08-22T07:05:50.200Z,21.39
2022-08-22T07:11:02.415Z,21.52
2022-08-22T07:16:10.191Z,21.73
2022-08-22T07:21:30.107Z,21.82
2022-08-22T07:26:43.875Z,21.97
2022-08-22T07:32:12.401Z,22.01
2022-08-22T07:37:29.735Z,21.88
2022-08-22T07:42:38.590Z,22.17
2022-08-22T07:47:58.507Z,22.30
2022-08-22T07:53:07.946Z,22.47
2022-08-22T07:58:15.502Z,22.48
2022-08-22T08:03:24.081Z,22.56
2022-08-22T08:08:44.392Z,22.85
2022-08-22T08:13:52.925Z,22.95
2022-08-22T08:19:01.705Z,23.04
2022-08-22T08:24:10.087Z,23.17
2022-08-22T08:29:19.017Z,23.17
2022-08-22T08:34:28.410Z,23.36
2022-08-22T08:39:50.356Z,23.39
2022-08-22T08:45:05.009Z,23.44
2022-08-22T08:50:22.602Z,23.71
2022-08-22T08:55:51.301Z,23.86
2022-08-22T09:00:59.815Z,23.95
2022-08-22T09:06:27.983Z,24.03
2022-08-22T09:11:53.158Z,24.17
2022-08-22T09:17:05.146Z,24.13
2022-08-22T09:22:50.306Z,24.45
2022-08-22T09:28:04.960Z,24.54
2022-08-22T09:33:19.588Z,24.41
2022-08-22T09:38:50.961Z,24.63
2022-08-22T09:44:17.321Z,24.89
2022-08-22T09:49:38.231Z,24.86
2022-08-22T09:54:49.541Z,24.91
2022-08-22T10:00:02.132Z,24.75
2022-08-22T10:05:40.675Z,24.77
2022-08-22T10:10:41.712Z,24.96
2022-08-22T10:16:09.684Z,25.05
2022-08-22T10:21:19.215Z,25.13
2022-08-22T10:26:51.093Z,25.22
2022-08-22T10:32:01.389Z,25.11
2022-08-22T10:37:25.664Z,25.07
2022-08-22T10:42:35.730Z,25.24
2022-08-22T10:47:44.590Z,25.31
2022-08-22T10:52:56.592Z,25.46
2022-08-22T10:58:05.233Z,25.56
2022-08-22T11:03:46.126Z,25.60
2022-08-22T11:09:07.774Z,25.31
2022-08-22T11:14:19.363Z,25.57
2022-08-22T11:19:45.523Z,25.67
2022-08-22T11:25:11.202Z,25.81
2022-08-22T11:30:19.689Z,25.95
2022-08-22T11:35:28.447Z,25.74
2022-08-22T11:40:45.834Z,25.63
2022-08-22T11:45:55.796Z,25.53
2022-08-22T11:51:24.828Z,25.52
2022-08-22T11:56:29.813Z,25.54
2022-08-22T12:01:44.120Z,25.45
2022-08-22T12:07:02.339Z,25.50
2022-08-22T12:12:27.766Z,25.29
2022-08-22T12:18:01.607Z,25.39
2022-08-22T12:23:30.370Z,25.54
2022-08-22T12:28:51.545Z,25.70
2022-08-22T12:34:12.357Z,25.92
2022-08-22T12:39:31.368Z,25.70
2022-08-22T12:45:03.652Z,25.52
2022-08-22T12:50:31.711Z,25.60
2022-08-22T12:55:46.052Z,25.58
2022-08-22T13:00:53.166Z,25.59
2022-08-22T13:06:00.841Z,25.46
2022-08-22T13:11:15.027Z,25.37
2022-08-22T13:16:20.228Z,25.39
2022-08-22T13:21:31.840Z,25.18
2022-08-22T13:26:43.305Z,25.25
2022-08-22T13:31:50.717Z,25.09
2022-08-22T13:37:00.347Z,24.94
2022-08-22T13:42:14.590Z,24.94
2022-08-22T13:47:18.607Z,24.77
2022-08-22T13:52:36.954Z,24.77
2022-08-22T13:57:52.081Z,24.72
2022-08-22T14:03:15.679Z,24.58
2022-08-22T14:08:25.890Z,24.54
2022-08-22T14:13:42.259Z,24.47
2022-08-22T14:18:56.553Z,24.45
2022-08-22T14:24:17.365Z,24.38
2022-08-22T14:29:28.001Z,24.31
2022-08-22T14:34:38.116Z,24.37
2022-08-22T14:39:46.767Z,24.33
2022-08-22T14:45:10.830Z,24.28
2022-08-22T14:50:35.118Z,24.27
2022-08-22T14:55:43.374Z,24.18
2022-08-22T15:00:51.461Z,24.12
2022-08-22T15:06:06.146Z,24.10
2022-08-22T15:11:23.997Z,23.98
2022-08-22T15:16:34.139Z,23.99
2022-08-22T15:21:41.554Z,23.93
2022-08-22T15:26:55.277Z,23.88
2022-08-22T15:32:03.248Z,23.89
2022-08-22T15:37:21.334Z,23.81
2022-08-22T15:42:46.462Z,23.76
2022-08-22T15:47:54.575Z,23.75
2022-08-22T15:53:15.834Z,23.69
2022-08-22T15:58:25.469Z,23.71
2022-08-22T16:03:34.196Z,23.65
2022-08-22T16:08:48.878Z,23.52
2022-08-22T16:14:23.724Z,23.40
2022-08-22T16:19:32.127Z,23.21
2022-08-22T16:24:43.866Z,23.03
2022-08-22T16:29:51.278Z,23.02
2022-08-22T16:34:56.865Z,22.97
2022-08-22T16:40:07.207Z,22.72
2022-08-22T16:45:29.580Z,22.70
2022-08-22T16:50:41.159Z,22.57
2022-08-22T16:55:49.980Z,22.37
2022-08-22T17:00:58.568Z,22.30
2022-08-22T17:06:30.231Z,22.23
2022-08-22T17:12:07.041Z,22.19
2022-08-22T17:17:31.036Z,22.01
2022-08-22T17:22:48.678Z,21.96
2022-08-22T17:28:14.959Z,21.90
2022-08-22T17:33:32.774Z,21.84
2022-08-22T17:38:51.679Z,21.76
2022-08-22T17:44:12.425Z,21.80
2022-08-22T17:49:33.596Z,21.70
2022-08-22T17:54:50.956Z,21.63
2022-08-22T18:00:33.402Z,21.56
2022-08-22T18:05:42.011Z,21.49
2022-08-22T18:10:56.585Z,21.59
2022-08-22T18:16:14.134Z,21.62
2022-08-22T18:21:28.694Z,21.56
2022-08-22T18:26:49.286Z,21.51
2022-08-22T18:32:25.506Z,21.46
2022-08-22T18:37:35.734Z,21.46
2022-08-22T18:42:53.429Z,21.33
2022-08-22T18:47:59.228Z,21.31
2022-08-22T18:53:07.634Z,21.33
2022-08-22T18:58:31.426Z,21.26
2022-08-22T19:03:39.958Z,21.20
2022-08-22T19:09:05.591Z,21.22
2022-08-22T19:14:29.504Z,21.18
2022-08-22T19:19:42.460Z,21.11
2022-08-22T19:25:09.404Z,21.12
2022-08-22T19:30:36.767Z,21.16
2022-08-22T19:35:48.813Z,21.08
2022-08-22T19:40:58.494Z,21.06
2022-08-22T19:46:07.228Z,21.05
2022-08-22T19:51:18.716Z,21.07
2022-08-22T19:56:30.269Z,21.10
2022-08-22T20:01:55.711Z,21.14
2022-08-22T20:07:16.246Z,21.11
2022-08-22T20:12:28.059Z,21.07
2022-08-22T20:17:39.230Z,21.08
2022-08-22T20:22:53.737Z,21.06
2022-08-22T20:28:08.654Z,21.02
2022-08-22T20:33:18.597Z,20.91
2022-08-22T20:38:27.133Z,20.92
2022-08-22T20:43:38.416Z,20.95
2022-08-22T20:48:46.963Z,20.94
2022-08-22T20:54:01.997Z,20.89
2022-08-22T20:59:33.737Z,20.93
2022-08-22T21:05:04.563Z,20.82
2022-08-22T21:10:46.272Z,20.79
2022-08-22T21:15:56.812Z,20.81
2022-08-22T21:21:17.127Z,20.72
2022-08-22T21:26:27.878Z,20.72
2022-08-22T21:31:48.691Z,20.75
2022-08-22T21:36:58.587Z,20.72
2022-08-22T21:42:10.705Z,20.73
2022-08-22T21:47:34.758Z,20.74
2022-08-22T21:52:44.249Z,20.72
2022-08-22T21:58:04.723Z,20.70
2022-08-22T22:03:11.008Z,20.72
2022-08-22T22:08:17.786Z,20.71
2022-08-22T22:13:24.392Z,20.73
2022-08-22T22:18:37.586Z,20.70
2022-08-22T22:23:43.201Z,20.68
2022-08-22T22:28:50.467Z,20.60
2022-08-22T22:33:56.077Z,20.61
2022-08-22T22:39:04.093Z,20.51
2022-08-22T22:44:09.673Z,20.50
2022-08-22T22:49:15.879Z,20.52
2022-08-22T22:54:27.428Z,20.54
2022-08-22T22:59:28.916Z,20.56
2022-08-22T23:04:38.860Z,20.53
2022-08-22T23:09:45.171Z,20.49
2022-08-22T23:14:51.714Z,20.50
2022-08-22T23:19:57.931Z,20.53
2022-08-22T23:25:03.626Z,20.53
2022-08-22T23:30:10.626Z,20.52
2022-08-22T23:35:16.257Z,20.52
2022-08-22T23:40:21.764Z,20.58
2022-08-22T23:45:27.338Z,20.58
2022-08-22T23:50:32.888Z,20.58
2022-08-22T23:55:38.618Z,20.54
